createdAt,value
2018-10-12T00:00:40.567Z,95895.05
2018-10-12T00:03:10.260Z,95905.22
2018-10-12T00:05:39.359Z,95912.42
2018-10-12T00:08:08.458Z,95911.64
2018-10-12T00:10:37.704Z,95917.89
2018-10-12T00:13:06.817Z,95922.06
2018-10-12T00:15:35.971Z,95917.07
2018-10-12T00:18:05.061Z,95923.13
2018-10-12T00:20:34.333Z,95921.69
2018-10-12T00:23:03.476Z,95928.52
2018-10-12T00:25:32.759Z,95932.33
2018-10-12T00:28:01.905Z,95931.50
2018-10-12T00:30:31.057Z,95930.86
2018-10-12T00:33:00.184Z,95936.00
2018-10-12T00:35:29.265Z,95940.02
2018-10-12T00:37:58.445Z,95940.27
2018-10-12T00:40:27.558Z,95946.53
2018-10-12T00:42:56.706Z,95945.78
2018-10-12T00:45:25.859Z,95944.33
2018-10-12T00:48:00.829Z,95946.26
2018-10-12T00:50:31.480Z,95951.47
2018-10-12T00:53:01.176Z,95948.38
2018-10-12T00:55:32.548Z,95947.02
2018-10-12T00:58:01.754Z,95950.72
2018-10-12T01:00:30.924Z,95948.76
2018-10-12T01:03:00.132Z,95949.01
2018-10-12T01:05:29.242Z,95956.41
2018-10-12T01:07:58.432Z,95962.10
2018-10-12T01:10:27.523Z,95960.91
2018-10-12T01:12:56.635Z,95963.86
2018-10-12T01:15:25.797Z,95975.42
2018-10-12T01:17:54.981Z,95978.98
2018-10-12T01:20:24.109Z,95973.53
2018-10-12T01:22:53.278Z,95980.41
2018-10-12T01:25:22.412Z,95988.43
2018-10-12T01:27:51.510Z,95986.23
2018-10-12T01:30:20.685Z,95990.81
2018-10-12T01:32:55.171Z,95986.43
2018-10-12T01:35:24.299Z,95988.66
2018-10-12T01:37:53.380Z,95988.66
2018-10-12T01:40:22.539Z,95994.35
2018-10-12T01:42:51.939Z,95995.80
2018-10-12T01:45:21.099Z,96001.42
2018-10-12T01:47:50.273Z,96003.95
2018-10-12T01:50:19.391Z,96008.75
2018-10-12T01:52:48.479Z,96012.63
2018-10-12T01:55:17.691Z,96014.22
2018-10-12T01:57:46.799Z,96020.14
2018-10-12T02:00:15.995Z,96019.84
2018-10-12T02:02:45.097Z,96021.58
2018-10-12T02:05:14.302Z,96022.59
2018-10-12T02:07:43.431Z,96024.78
2018-10-12T02:10:12.620Z,96025.97
2018-10-12T02:12:41.709Z,96031.22
2018-10-12T02:15:10.858Z,96028.66
2018-10-12T02:17:39.949Z,96032.60
2018-10-12T02:20:09.273Z,96029.52
2018-10-12T02:22:38.421Z,96038.22
2018-10-12T02:25:07.908Z,96046.11
2018-10-12T02:27:37.044Z,96044.03
2018-10-12T02:30:07.114Z,96041.97
2018-10-12T02:32:36.276Z,96044.17
2018-10-12T02:35:05.577Z,96047.88
2018-10-12T02:37:34.735Z,96049.94
2018-10-12T02:40:03.823Z,96053.48
2018-10-12T02:42:32.946Z,96058.95
2018-10-12T02:45:02.042Z,96060.58
2018-10-12T02:47:31.180Z,96064.31
2018-10-12T02:50:00.279Z,96073.94
2018-10-12T02:52:29.420Z,96075.91
2018-10-12T02:54:58.572Z,96075.91
2018-10-12T02:57:27.773Z,96082.58
2018-10-12T02:59:56.920Z,96080.05
2018-10-12T03:02:26.011Z,96088.31
2018-10-12T03:04:55.192Z,96091.32
2018-10-12T03:07:24.340Z,96091.40
2018-10-12T03:09:53.484Z,96089.69
2018-10-12T03:12:22.592Z,96096.24
2018-10-12T03:14:51.680Z,96097.69
2018-10-12T03:17:20.865Z,96103.56
2018-10-12T03:19:49.925Z,96101.86
2018-10-12T03:22:20.165Z,96111.95
2018-10-12T03:24:49.364Z,96103.46
2018-10-12T03:27:18.527Z,96116.78
2018-10-12T03:29:47.849Z,96113.84
2018-10-12T03:32:17.011Z,96119.34
2018-10-12T03:34:46.145Z,96123.84
2018-10-12T03:37:15.386Z,96124.09
2018-10-12T03:39:44.489Z,96132.16
2018-10-12T03:42:13.589Z,96135.28
2018-10-12T03:44:42.728Z,96136.95
2018-10-12T03:47:11.889Z,96136.01
2018-10-12T03:49:41.037Z,96134.97
2018-10-12T03:52:11.063Z,96138.09
2018-10-12T03:54:40.293Z,96141.33
2018-10-12T03:57:09.484Z,96140.00
2018-10-12T03:59:38.580Z,96146.70
2018-10-12T04:02:07.680Z,96148.42
2018-10-12T04:04:36.784Z,96147.06
2018-10-12T04:07:05.968Z,96155.02
2018-10-12T04:09:35.064Z,96155.98
2018-10-12T04:12:04.204Z,96150.38
2018-10-12T04:14:33.301Z,96158.14
2018-10-12T04:17:02.465Z,96160.33
2018-10-12T04:19:31.602Z,96163.56
2018-10-12T04:22:00.761Z,96163.50
2018-10-12T04:24:29.874Z,96164.00
2018-10-12T04:26:59.044Z,96163.88
2018-10-12T04:29:28.163Z,96169.16
2018-10-12T04:31:57.341Z,96169.99
2018-10-12T04:34:26.423Z,96171.19
2018-10-12T04:36:55.652Z,96172.91
2018-10-12T04:39:39.789Z,96176.48
2018-10-12T04:42:09.101Z,96174.00
2018-10-12T04:44:38.209Z,96178.49
2018-10-12T04:47:07.672Z,96178.92
2018-10-12T04:49:36.789Z,96184.27
2018-10-12T04:52:05.972Z,96191.77
2018-10-12T04:54:35.128Z,96192.22
2018-10-12T04:57:04.204Z,96193.99
2018-10-12T04:59:33.328Z,96194.68
2018-10-12T05:02:02.481Z,96207.88
2018-10-12T05:04:31.586Z,96205.97
2018-10-12T05:07:00.760Z,96204.86
2018-10-12T05:09:29.896Z,96207.18
2018-10-12T05:11:59.044Z,96209.45
2018-10-12T05:14:28.200Z,96209.21
2018-10-12T05:16:57.340Z,96218.73
2018-10-12T05:19:26.504Z,96218.19
2018-10-12T05:21:55.717Z,96224.21
2018-10-12T05:24:24.838Z,96231.38
2018-10-12T05:26:54.034Z,96236.34
2018-10-12T05:29:23.169Z,96236.89
2018-10-12T05:31:52.385Z,96233.48
2018-10-12T05:34:21.487Z,96239.48
2018-10-12T05:36:50.642Z,96247.23
2018-10-12T05:39:19.763Z,96241.91
2018-10-12T05:41:48.953Z,96249.27
2018-10-12T05:44:18.080Z,96255.85
2018-10-12T05:46:47.197Z,96252.37
2018-10-12T05:49:27.538Z,96261.20
2018-10-12T05:51:56.664Z,96254.09
2018-10-12T05:54:25.801Z,96259.34
2018-10-12T05:56:55.106Z,96266.08
2018-10-12T05:59:24.480Z,96266.86
2018-10-12T06:01:53.656Z,96276.49
2018-10-12T06:04:22.771Z,96281.00
2018-10-12T06:06:51.928Z,96286.09
2018-10-12T06:09:21.074Z,96286.69
2018-10-12T06:11:51.291Z,96283.00
2018-10-12T06:14:20.477Z,96289.39
2018-10-12T06:16:49.646Z,96297.22
2018-10-12T06:19:18.830Z,96307.76
2018-10-12T06:21:47.928Z,96308.58
2018-10-12T06:24:17.158Z,96317.36
2018-10-12T06:26:46.315Z,96315.62
2018-10-12T06:29:15.603Z,96318.88
2018-10-12T06:31:44.701Z,96319.56
2018-10-12T06:34:13.872Z,96320.30
2018-10-12T06:36:43.008Z,96322.55
2018-10-12T06:39:12.148Z,96326.43
2018-10-12T06:41:41.393Z,96329.13
2018-10-12T06:44:10.451Z,96332.45
2018-10-12T06:46:39.595Z,96337.81
2018-10-12T06:49:08.683Z,96343.25
2018-10-12T06:51:37.810Z,96346.77
2018-10-12T06:54:06.929Z,96350.48
2018-10-12T06:56:36.363Z,96361.08
2018-10-12T06:59:05.473Z,96364.79
2018-10-12T07:01:34.627Z,96373.64
2018-10-12T07:04:03.917Z,96375.13
2018-10-12T07:06:33.037Z,96379.63
2018-10-12T07:09:02.261Z,96387.39
2018-10-12T07:11:31.368Z,96385.39
2018-10-12T07:14:00.774Z,96390.47
2018-10-12T07:16:29.607Z,96387.56
2018-10-12T07:18:58.736Z,96387.09
2018-10-12T07:21:27.926Z,96393.00
2018-10-12T07:23:57.016Z,96405.50
2018-10-12T07:26:26.156Z,96403.92
2018-10-12T07:28:55.287Z,96407.09
2018-10-12T07:31:24.463Z,96413.55
2018-10-12T07:33:53.556Z,96411.44
2018-10-12T07:36:22.738Z,96417.49
2018-10-12T07:38:51.824Z,96423.27
2018-10-12T07:41:20.931Z,96428.72
2018-10-12T07:43:50.056Z,96428.45
2018-10-12T07:46:19.212Z,96434.06
2018-10-12T07:48:48.659Z,96432.94
2018-10-12T07:51:17.862Z,96440.86
2018-10-12T07:53:47.054Z,96439.61
2018-10-12T07:56:16.185Z,96435.76
2018-10-12T07:58:45.269Z,96447.28
2018-10-12T08:01:14.352Z,96444.33
2018-10-12T08:03:43.469Z,96446.59
2018-10-12T08:06:12.579Z,96447.09
2018-10-12T08:08:41.689Z,96453.19
2018-10-12T08:11:10.801Z,96453.11
2018-10-12T08:13:39.978Z,96449.78
2018-10-12T08:16:09.022Z,96457.26
2018-10-12T08:18:38.167Z,96460.66
2018-10-12T08:21:07.633Z,96456.80
2018-10-12T08:23:36.729Z,96464.77
2018-10-12T08:26:05.853Z,96470.48
2018-10-12T08:28:35.041Z,96465.58
2018-10-12T08:31:04.148Z,96462.25
2018-10-12T08:33:33.251Z,96466.20
2018-10-12T08:36:02.416Z,96465.15
2018-10-12T08:38:31.556Z,96471.37
2018-10-12T08:41:00.685Z,96474.80
2018-10-12T08:43:29.822Z,96469.50
2018-10-12T08:45:58.924Z,96470.94
2018-10-12T08:48:28.164Z,96476.36
2018-10-12T08:50:57.268Z,96481.07
2018-10-12T08:53:26.406Z,96481.32
2018-10-12T08:55:55.500Z,96479.91
2018-10-12T08:58:24.668Z,96482.84
2018-10-12T09:00:53.872Z,96490.06
2018-10-12T09:03:22.972Z,96500.53
2018-10-12T09:05:52.200Z,96490.84
2018-10-12T09:08:21.264Z,96496.66
2018-10-12T09:10:50.386Z,96496.03
2018-10-12T09:13:19.585Z,96500.57
2018-10-12T09:15:48.680Z,96497.56
2018-10-12T09:18:17.847Z,96498.45
2018-10-12T09:20:47.037Z,96492.38
2018-10-12T09:23:16.113Z,96499.20
2018-10-12T09:25:45.479Z,96491.66
2018-10-12T09:28:14.731Z,96492.64
2018-10-12T09:30:43.865Z,96496.95
2018-10-12T09:33:12.945Z,96495.50
2018-10-12T09:35:42.046Z,96494.28
2018-10-12T09:38:11.229Z,96492.72
2018-10-12T09:40:40.760Z,96493.45
2018-10-12T09:43:09.905Z,96489.39
2018-10-12T09:45:39.149Z,96497.78
2018-10-12T09:48:08.578Z,96503.75
2018-10-12T09:50:37.745Z,96499.59
2018-10-12T09:53:06.853Z,96494.44
2018-10-12T09:55:35.981Z,96493.29
2018-10-12T09:58:05.133Z,96496.24
2018-10-12T10:00:39.554Z,96496.47
2018-10-12T10:03:14.156Z,96502.36
2018-10-12T10:05:43.560Z,96492.27
2018-10-12T10:08:12.786Z,96497.19
2018-10-12T10:10:41.792Z,96498.83
2018-10-12T10:13:10.916Z,96497.66
2018-10-12T10:15:40.086Z,96494.32
2018-10-12T10:18:09.193Z,96497.59
2018-10-12T10:20:38.523Z,96487.95
2018-10-12T10:23:07.623Z,96492.26
2018-10-12T10:25:36.718Z,96490.66
2018-10-12T10:28:06.340Z,96488.13
2018-10-12T10:30:36.000Z,96484.12
2018-10-12T10:33:05.147Z,96488.52
2018-10-12T10:35:34.352Z,96485.91
2018-10-12T10:38:03.492Z,96480.95
2018-10-12T10:40:32.611Z,96480.81
2018-10-12T10:43:01.729Z,96491.19
2018-10-12T10:45:30.815Z,96481.90
2018-10-12T10:47:59.968Z,96486.34
2018-10-12T10:50:29.105Z,96489.86
2018-10-12T10:52:58.342Z,96482.98
2018-10-12T10:55:27.462Z,96484.67
2018-10-12T10:57:56.675Z,96482.71
2018-10-12T11:00:26.076Z,96480.87
2018-10-12T11:02:55.399Z,96481.18
2018-10-12T11:05:24.496Z,96475.13
2018-10-12T11:07:53.673Z,96475.03
2018-10-12T11:10:22.757Z,96475.72
2018-10-12T11:12:52.066Z,96463.21
2018-10-12T11:15:21.075Z,96469.02
2018-10-12T11:17:50.145Z,96468.78
2018-10-12T11:20:19.264Z,96463.71
2018-10-12T11:22:48.393Z,96460.44
2018-10-12T11:25:17.462Z,96459.44
2018-10-12T11:27:46.596Z,96465.05
2018-10-12T11:30:15.860Z,96452.23
2018-10-12T11:32:45.095Z,96457.53
2018-10-12T11:35:14.292Z,96452.27
2018-10-12T11:37:43.510Z,96455.29
2018-10-12T11:40:12.578Z,96457.37
2018-10-12T11:42:52.960Z,96451.30
2018-10-12T11:45:22.120Z,96451.54
2018-10-12T11:47:51.184Z,96453.16
2018-10-12T11:50:20.269Z,96447.06
2018-10-12T11:52:49.377Z,96442.95
2018-10-12T11:55:18.722Z,96446.75
2018-10-12T11:57:47.965Z,96440.05
2018-10-12T12:00:17.279Z,96445.38
2018-10-12T12:02:46.923Z,96443.86
2018-10-12T12:05:16.071Z,96443.75
2018-10-12T12:07:45.146Z,96442.66
2018-10-12T12:10:14.316Z,96442.42
2018-10-12T12:12:43.499Z,96442.99
2018-10-12T12:15:12.559Z,96444.69
2018-10-12T12:17:41.660Z,96445.61
2018-10-12T12:20:10.857Z,96441.35
2018-10-12T12:22:39.899Z,96444.64
2018-10-12T12:25:08.983Z,96435.34
2018-10-12T12:27:38.071Z,96427.92
2018-10-12T12:30:07.305Z,96433.04
2018-10-12T12:32:36.386Z,96433.67
2018-10-12T12:35:05.809Z,96431.15
2018-10-12T12:37:34.855Z,96430.03
2018-10-12T12:40:03.952Z,96437.50
2018-10-12T12:42:33.040Z,96431.16
2018-10-12T12:45:02.385Z,96429.65
2018-10-12T12:47:31.567Z,96420.89
2018-10-12T12:50:00.756Z,96418.24
2018-10-12T12:52:29.928Z,96416.97
2018-10-12T12:54:59.133Z,96417.16
2018-10-12T12:57:28.222Z,96410.50
2018-10-12T12:59:57.336Z,96409.13
2018-10-12T13:02:26.616Z,96412.47
2018-10-12T13:04:55.744Z,96414.85
2018-10-12T13:07:24.986Z,96410.40
2018-10-12T13:09:54.116Z,96411.20
2018-10-12T13:12:23.304Z,96403.21
2018-10-12T13:14:52.535Z,96406.15
2018-10-12T13:17:21.702Z,96400.31
2018-10-12T13:19:50.808Z,96401.69
2018-10-12T13:22:20.092Z,96403.03
2018-10-12T13:24:49.315Z,96399.05
2018-10-12T13:27:18.500Z,96400.81
2018-10-12T13:29:47.708Z,96398.64
2018-10-12T13:32:16.898Z,96397.47
2018-10-12T13:34:46.088Z,96403.13
2018-10-12T13:37:15.244Z,96408.08
2018-10-12T13:39:44.555Z,96405.14
2018-10-12T13:42:13.941Z,96409.81
2018-10-12T13:44:43.072Z,96413.88
2018-10-12T13:47:12.180Z,96414.84
2018-10-12T13:49:41.657Z,96412.41
2018-10-12T13:52:10.763Z,96414.83
2018-10-12T13:54:39.864Z,96420.69
2018-10-12T13:57:08.959Z,96412.84
2018-10-12T13:59:38.038Z,96412.91
2018-10-12T14:02:07.349Z,96418.66
2018-10-12T14:04:36.632Z,96423.22
2018-10-12T14:07:05.764Z,96422.90
2018-10-12T14:09:34.840Z,96423.33
2018-10-12T14:12:04.060Z,96424.58
2018-10-12T14:14:33.249Z,96419.34
2018-10-12T14:17:02.380Z,96418.06
2018-10-12T14:19:31.576Z,96417.95
2018-10-12T14:22:01.149Z,96415.30
2018-10-12T14:24:30.323Z,96418.35
2018-10-12T14:26:59.514Z,96414.45
2018-10-12T14:29:28.674Z,96414.08
2018-10-12T14:32:04.366Z,96405.03
2018-10-12T14:34:33.463Z,96403.23
2018-10-12T14:37:02.559Z,96400.83
2018-10-12T14:39:31.805Z,96397.73
2018-10-12T14:42:00.943Z,96403.60
2018-10-12T14:44:30.164Z,96397.77
2018-10-12T14:46:59.291Z,96401.53
2018-10-12T14:49:28.465Z,96400.31
2018-10-12T14:51:57.531Z,96394.77
2018-10-12T14:54:26.737Z,96389.55
2018-10-12T14:56:55.848Z,96391.10
2018-10-12T14:59:24.979Z,96391.45
2018-10-12T15:01:54.085Z,96386.05
2018-10-12T15:04:23.376Z,96381.36
2018-10-12T15:06:52.543Z,96368.74
2018-10-12T15:09:21.780Z,96365.79
2018-10-12T15:11:50.910Z,96365.94
2018-10-12T15:14:33.858Z,96367.89
2018-10-12T15:17:02.965Z,96364.56
2018-10-12T15:19:32.152Z,96362.13
2018-10-12T15:22:01.337Z,96365.53
2018-10-12T15:24:30.416Z,96356.20
2018-10-12T15:26:59.580Z,96357.42
2018-10-12T15:29:29.056Z,96353.82
2018-10-12T15:31:58.318Z,96349.73
2018-10-12T15:34:27.395Z,96353.12
2018-10-12T15:36:56.522Z,96353.03
2018-10-12T15:39:25.607Z,96353.08
2018-10-12T15:41:54.699Z,96356.03
2018-10-12T15:44:24.082Z,96356.13
2018-10-12T15:46:53.175Z,96363.14
2018-10-12T15:49:22.364Z,96350.36
2018-10-12T15:51:51.519Z,96342.04
2018-10-12T15:54:20.685Z,96345.08
2018-10-12T15:56:49.905Z,96344.01
2018-10-12T15:59:19.089Z,96334.94
2018-10-12T16:01:49.011Z,96340.61
2018-10-12T16:04:18.148Z,96346.19
2018-10-12T16:06:47.261Z,96348.31
2018-10-12T16:09:22.636Z,96352.73
2018-10-12T16:11:52.469Z,96362.63
2018-10-12T16:14:21.564Z,96360.44
2018-10-12T16:16:50.648Z,96359.05
2018-10-12T16:19:19.784Z,96358.65
2018-10-12T16:21:49.027Z,96356.56
2018-10-12T16:24:18.123Z,96355.17
2018-10-12T16:26:47.333Z,96359.20
2018-10-12T16:29:16.536Z,96362.62
2018-10-12T16:31:45.598Z,96360.66
2018-10-12T16:34:14.777Z,96358.45
2018-10-12T16:36:44.125Z,96362.00
2018-10-12T16:39:13.281Z,96357.39
2018-10-12T16:41:43.447Z,96356.19
2018-10-12T16:44:12.591Z,96365.86
2018-10-12T16:46:41.703Z,96365.84
2018-10-12T16:49:10.848Z,96365.81
2018-10-12T16:51:39.971Z,96371.99
2018-10-12T16:54:09.820Z,96380.05
2018-10-12T16:56:39.425Z,96385.83
2018-10-12T16:59:09.157Z,96382.55
2018-10-12T17:01:38.735Z,96388.59
2018-10-12T17:04:08.011Z,96386.47
2018-10-12T17:06:37.454Z,96383.60
2018-10-12T17:09:07.467Z,96389.25
2018-10-12T17:11:36.923Z,96387.35
2018-10-12T17:14:06.188Z,96388.64
2018-10-12T17:16:35.323Z,96390.81
2018-10-12T17:19:04.642Z,96391.02
2018-10-12T17:21:33.823Z,96397.38
2018-10-12T17:24:03.179Z,96393.27
2018-10-12T17:26:32.446Z,96402.66
2018-10-12T17:29:01.990Z,96403.33
2018-10-12T17:31:31.927Z,96408.36
2018-10-12T17:34:01.921Z,96416.30
2018-10-12T17:36:32.060Z,96425.92
2018-10-12T17:39:01.550Z,96426.08
2018-10-12T17:41:31.150Z,96432.94
2018-10-12T17:44:01.648Z,96431.64
2018-10-12T17:46:31.292Z,96428.02
2018-10-12T17:49:00.519Z,96428.73
2018-10-12T17:51:29.649Z,96426.28
2018-10-12T17:53:58.745Z,96426.77
2018-10-12T17:56:27.828Z,96424.30
2018-10-12T17:58:57.025Z,96423.32
2018-10-12T18:01:26.153Z,96436.98
2018-10-12T18:03:55.253Z,96432.66
2018-10-12T18:06:24.369Z,96436.77
2018-10-12T18:08:53.554Z,96439.61
2018-10-12T18:11:22.593Z,96445.97
2018-10-12T18:13:51.773Z,96445.01
2018-10-12T18:16:20.930Z,96444.39
2018-10-12T18:18:50.091Z,96439.77
2018-10-12T18:21:19.239Z,96444.55
2018-10-12T18:23:48.349Z,96447.09
2018-10-12T18:26:17.496Z,96446.63
2018-10-12T18:28:46.620Z,96453.20
2018-10-12T18:31:15.732Z,96453.10
2018-10-12T18:33:44.826Z,96450.69
2018-10-12T18:36:14.455Z,96445.65
2018-10-12T18:38:44.234Z,96448.86
2018-10-12T18:41:13.839Z,96450.98
2018-10-12T18:43:43.275Z,96453.19
2018-10-12T18:46:12.378Z,96456.27
2018-10-12T18:48:41.506Z,96456.28
2018-10-12T18:51:10.608Z,96451.36
2018-10-12T18:53:39.708Z,96455.88
2018-10-12T18:56:08.825Z,96457.94
2018-10-12T18:58:37.958Z,96464.86
2018-10-12T19:01:07.077Z,96459.34
2018-10-12T19:03:36.530Z,96465.02
2018-10-12T19:06:05.641Z,96465.29
2018-10-12T19:08:35.015Z,96467.56
2018-10-12T19:11:04.137Z,96474.94
2018-10-12T19:13:33.495Z,96474.33
2018-10-12T19:16:02.620Z,96478.99
2018-10-12T19:18:31.718Z,96473.48
2018-10-12T19:21:00.819Z,96475.52
2018-10-12T19:23:34.162Z,96480.66
2018-10-12T19:26:04.450Z,96482.96
2018-10-12T19:28:34.184Z,96487.53
2018-10-12T19:31:04.459Z,96483.89
2018-10-12T19:33:33.678Z,96485.69
2018-10-12T19:36:02.767Z,96484.69
2018-10-12T19:38:31.985Z,96480.17
2018-10-12T19:41:01.032Z,96478.89
2018-10-12T19:43:30.151Z,96478.47
2018-10-12T19:46:00.090Z,96476.22
2018-10-12T19:48:29.225Z,96482.50
2018-10-12T19:50:58.306Z,96482.14
2018-10-12T19:53:27.474Z,96486.88
2018-10-12T19:55:56.570Z,96496.01
2018-10-12T19:58:25.898Z,96502.81
2018-10-12T20:00:54.995Z,96504.41
2018-10-12T20:03:24.176Z,96502.47
2018-10-12T20:05:53.308Z,96498.23
2018-10-12T20:08:22.405Z,96503.60
2018-10-12T20:10:51.527Z,96508.14
2018-10-12T20:13:20.624Z,96497.27
2018-10-12T20:15:49.744Z,96497.88
2018-10-12T20:18:18.841Z,96496.43
2018-10-12T20:20:47.935Z,96496.16
2018-10-12T20:23:17.079Z,96495.47
2018-10-12T20:25:46.219Z,96497.09
2018-10-12T20:28:15.309Z,96498.83
2018-10-12T20:30:44.413Z,96497.01
2018-10-12T20:33:13.544Z,96500.11
2018-10-12T20:35:42.661Z,96494.79
2018-10-12T20:38:11.799Z,96495.72
2018-10-12T20:40:41.000Z,96495.34
2018-10-12T20:43:10.124Z,96491.97
2018-10-12T20:45:39.302Z,96488.78
2018-10-12T20:48:08.478Z,96488.80
2018-10-12T20:50:37.739Z,96489.13
2018-10-12T20:53:07.066Z,96492.87
2018-10-12T20:55:36.206Z,96493.30
2018-10-12T20:58:09.041Z,96489.88
2018-10-12T21:00:38.199Z,96488.54
2018-10-12T21:03:07.297Z,96491.66
2018-10-12T21:05:36.391Z,96492.09
2018-10-12T21:08:05.552Z,96484.77
2018-10-12T21:10:34.756Z,96485.61
2018-10-12T21:13:03.857Z,96490.38
2018-10-12T21:15:32.988Z,96488.18
2018-10-12T21:18:02.157Z,96488.30
2018-10-12T21:20:31.228Z,96486.63
2018-10-12T21:23:00.324Z,96490.80
2018-10-12T21:25:29.440Z,96483.93
2018-10-12T21:27:58.524Z,96486.59
2018-10-12T21:30:31.556Z,96485.81
2018-10-12T21:33:00.627Z,96486.13
2018-10-12T21:35:29.736Z,96490.67
2018-10-12T21:37:58.828Z,96490.31
2018-10-12T21:40:27.921Z,96480.37
2018-10-12T21:42:57.052Z,96480.73
2018-10-12T21:45:26.180Z,96480.77
2018-10-12T21:47:55.503Z,96480.31
2018-10-12T21:50:24.718Z,96481.33
2018-10-12T21:52:53.798Z,96473.91
2018-10-12T21:55:22.880Z,96473.91
2018-10-12T21:57:51.996Z,96471.42
2018-10-12T22:00:21.119Z,96467.15
2018-10-12T22:02:50.289Z,96473.34
2018-10-12T22:05:19.389Z,96475.54
2018-10-12T22:07:48.464Z,96470.63
2018-10-12T22:10:17.645Z,96471.42
2018-10-12T22:12:46.751Z,96462.02
2018-10-12T22:15:15.857Z,96465.27
2018-10-12T22:17:44.964Z,96470.09
2018-10-12T22:20:14.093Z,96464.28
2018-10-12T22:22:43.343Z,96463.27
2018-10-12T22:25:12.461Z,96463.94
2018-10-12T22:27:41.560Z,96468.41
2018-10-12T22:30:10.675Z,96467.91
2018-10-12T22:32:39.769Z,96472.22
2018-10-12T22:35:09.757Z,96463.89
2018-10-12T22:37:38.861Z,96460.98
2018-10-12T22:40:07.983Z,96463.46
2018-10-12T22:42:37.258Z,96460.20
2018-10-12T22:45:06.361Z,96463.19
2018-10-12T22:47:35.461Z,96466.02
2018-10-12T22:50:04.581Z,96467.39
2018-10-12T22:52:33.712Z,96468.75
2018-10-12T22:55:02.845Z,96477.54
2018-10-12T22:57:31.946Z,96474.94
2018-10-12T23:00:01.036Z,96471.85
2018-10-12T23:02:30.144Z,96467.84
2018-10-12T23:04:59.264Z,96466.98
2018-10-12T23:07:28.358Z,96461.45
2018-10-12T23:09:57.448Z,96467.15
2018-10-12T23:12:26.762Z,96468.15
2018-10-12T23:14:55.895Z,96462.45
2018-10-12T23:17:24.988Z,96463.95
2018-10-12T23:19:54.120Z,96460.26
2018-10-12T23:22:23.231Z,96460.50
2018-10-12T23:24:52.312Z,96455.94
2018-10-12T23:27:21.424Z,96451.23
2018-10-12T23:29:50.536Z,96452.73
2018-10-12T23:32:19.635Z,96450.20
2018-10-12T23:34:48.739Z,96454.17
2018-10-12T23:37:17.815Z,96449.75
2018-10-12T23:39:46.917Z,96455.14
2018-10-12T23:42:16.053Z,96451.00
2018-10-12T23:44:45.168Z,96451.30
2018-10-12T23:47:14.347Z,96447.19
2018-10-12T23:49:43.684Z,96440.87
2018-10-12T23:52:12.917Z,96441.70
2018-10-12T23:54:42.089Z,96434.48
2018-10-12T23:57:11.206Z,96436.04
2018-10-12T23:59:40.305Z,96435.83
